sensor_id;sensor_type;location;lat;lon;timestamp;temperature;humidity
79301;SHT31;68755;51.984;5.646;2023-07-02T00:01:31;20.2;67.8
79301;SHT31;68755;51.984;5.646;2023-07-02T00:04:00;20.2;68.2
79301;SHT31;68755;51.984;5.646;2023-07-02T00:06:30;20.2;68.1
79301;SHT31;68755;51.984;5.646;2023-07-02T00:09:05;20.2;67.8
79301;SHT31;68755;51.984;5.646;2023-07-02T00:11:35;20.2;67.8
79301;SHT31;68755;51.984;5.646;2023-07-02T00:14:05;20.2;68.0
79301;SHT31;68755;51.984;5.646;2023-07-02T00:16:35;20.2;67.8
79301;SHT31;68755;51.984;5.646;2023-07-02T00:19:05;20.2;68.3
79301;SHT31;68755;51.984;5.646;2023-07-02T00:21:37;20.2;68.1
79301;SHT31;68755;51.984;5.646;2023-07-02T00:24:09;20.2;66.4
79301;SHT31;68755;51.984;5.646;2023-07-02T00:26:39;20.1;67.9
79301;SHT31;68755;51.984;5.646;2023-07-02T00:29:09;20.1;67.5
79301;SHT31;68755;51.984;5.646;2023-07-02T00:31:39;20.0;67.6
79301;SHT31;68755;51.984;5.646;2023-07-02T00:34:08;19.9;67.9
79301;SHT31;68755;51.984;5.646;2023-07-02T00:36:38;19.9;67.6
79301;SHT31;68755;51.984;5.646;2023-07-02T00:39:09;19.8;67.5
79301;SHT31;68755;51.984;5.646;2023-07-02T00:41:39;19.7;68.2
79301;SHT31;68755;51.984;5.646;2023-07-02T00:44:12;19.6;67.9
79301;SHT31;68755;51.984;5.646;2023-07-02T00:46:42;19.6;68.4
79301;SHT31;68755;51.984;5.646;2023-07-02T00:49:14;19.5;68.7
79301;SHT31;68755;51.984;5.646;2023-07-02T00:51:44;19.5;68.7
79301;SHT31;68755;51.984;5.646;2023-07-02T00:54:14;19.5;68.7
79301;SHT31;68755;51.984;5.646;2023-07-02T00:56:44;19.4;68.7
79301;SHT31;68755;51.984;5.646;2023-07-02T00:59:14;19.4;69.4
79301;SHT31;68755;51.984;5.646;2023-07-02T01:01:44;19.4;68.9
79301;SHT31;68755;51.984;5.646;2023-07-02T01:04:18;19.3;68.4
79301;SHT31;68755;51.984;5.646;2023-07-02T01:06:54;19.3;67.2
79301;SHT31;68755;51.984;5.646;2023-07-02T01:09:26;19.3;67.1
79301;SHT31;68755;51.984;5.646;2023-07-02T01:11:58;19.2;68.0
79301;SHT31;68755;51.984;5.646;2023-07-02T01:14:31;19.2;67.5
79301;SHT31;68755;51.984;5.646;2023-07-02T01:17:03;19.2;67.3
79301;SHT31;68755;51.984;5.646;2023-07-02T01:19:40;19.2;67.2
79301;SHT31;68755;51.984;5.646;2023-07-02T01:22:12;19.2;67.2
79301;SHT31;68755;51.984;5.646;2023-07-02T01:24:42;19.1;67.3
79301;SHT31;68755;51.984;5.646;2023-07-02T01:27:14;19.1;67.2
79301;SHT31;68755;51.984;5.646;2023-07-02T01:29:44;19.1;67.2
79301;SHT31;68755;51.984;5.646;2023-07-02T01:32:14;19.1;67.0
79301;SHT31;68755;51.984;5.646;2023-07-02T01:34:44;19.1;67.4
79301;SHT31;68755;51.984;5.646;2023-07-02T01:37:16;19.1;67.7
79301;SHT31;68755;51.984;5.646;2023-07-02T01:39:46;19.1;67.3
79301;SHT31;68755;51.984;5.646;2023-07-02T01:42:17;19.1;67.7
79301;SHT31;68755;51.984;5.646;2023-07-02T01:44:48;19.1;67.2
79301;SHT31;68755;51.984;5.646;2023-07-02T01:47:19;19.1;67.2
79301;SHT31;68755;51.984;5.646;2023-07-02T01:49:49;19.0;67.9
79301;SHT31;68755;51.984;5.646;2023-07-02T01:52:19;19.0;67.8
79301;SHT31;68755;51.984;5.646;2023-07-02T01:54:49;18.9;68.0
79301;SHT31;68755;51.984;5.646;2023-07-02T01:57:19;18.9;67.7
79301;SHT31;68755;51.984;5.646;2023-07-02T01:59:51;18.8;67.7
79301;SHT31;68755;51.984;5.646;2023-07-02T02:02:21;18.8;67.6
79301;SHT31;68755;51.984;5.646;2023-07-02T02:04:50;18.7;67.4
79301;SHT31;68755;51.984;5.646;2023-07-02T02:07:22;18.7;67.9
79301;SHT31;68755;51.984;5.646;2023-07-02T02:09:53;18.7;67.5
79301;SHT31;68755;51.984;5.646;2023-07-02T02:12:23;18.6;67.4
79301;SHT31;68755;51.984;5.646;2023-07-02T02:14:52;18.6;68.1
79301;SHT31;68755;51.984;5.646;2023-07-02T02:17:24;18.5;68.4
79301;SHT31;68755;51.984;5.646;2023-07-02T02:19:56;18.5;68.4
79301;SHT31;68755;51.984;5.646;2023-07-02T02:22:25;18.5;68.3
79301;SHT31;68755;51.984;5.646;2023-07-02T02:24:55;18.4;68.6
79301;SHT31;68755;51.984;5.646;2023-07-02T02:27:25;18.4;68.2
79301;SHT31;68755;51.984;5.646;2023-07-02T02:29:54;18.3;68.9
79301;SHT31;68755;51.984;5.646;2023-07-02T02:32:24;18.3;69.1
79301;SHT31;68755;51.984;5.646;2023-07-02T02:34:54;18.3;68.9
79301;SHT31;68755;51.984;5.646;2023-07-02T02:37:23;18.3;69.5
79301;SHT31;68755;51.984;5.646;2023-07-02T02:39:53;18.2;69.4
79301;SHT31;68755;51.984;5.646;2023-07-02T02:42:24;18.2;69.4
79301;SHT31;68755;51.984;5.646;2023-07-02T02:44:54;18.2;69.2
79301;SHT31;68755;51.984;5.646;2023-07-02T02:47:24;18.2;69.3
79301;SHT31;68755;51.984;5.646;2023-07-02T02:49:53;18.2;69.4
79301;SHT31;68755;51.984;5.646;2023-07-02T02:52:23;18.2;69.1
79301;SHT31;68755;51.984;5.646;2023-07-02T02:54:53;18.1;69.2
79301;SHT31;68755;51.984;5.646;2023-07-02T02:57:23;18.1;69.4
79301;SHT31;68755;51.984;5.646;2023-07-02T02:59:52;18.1;69.5
79301;SHT31;68755;51.984;5.646;2023-07-02T03:02:22;18.1;69.4
79301;SHT31;68755;51.984;5.646;2023-07-02T03:04:52;18.1;69.8
79301;SHT31;68755;51.984;5.646;2023-07-02T03:07:23;18.1;69.2
79301;SHT31;68755;51.984;5.646;2023-07-02T03:09:53;18.1;69.5
79301;SHT31;68755;51.984;5.646;2023-07-02T03:12:25;18.1;69.9
79301;SHT31;68755;51.984;5.646;2023-07-02T03:14:55;18.1;69.6
79301;SHT31;68755;51.984;5.646;2023-07-02T03:17:25;18.0;69.9
79301;SHT31;68755;51.984;5.646;2023-07-02T03:19:57;18.0;69.8
79301;SHT31;68755;51.984;5.646;2023-07-02T03:22:27;18.0;69.6
79301;SHT31;68755;51.984;5.646;2023-07-02T03:24:57;18.0;69.9
79301;SHT31;68755;51.984;5.646;2023-07-02T03:27:26;18.0;70.3
79301;SHT31;68755;51.984;5.646;2023-07-02T03:29:56;18.0;70.1
79301;SHT31;68755;51.984;5.646;2023-07-02T03:32:26;18.0;69.7
79301;SHT31;68755;51.984;5.646;2023-07-02T03:34:56;18.0;70.1
79301;SHT31;68755;51.984;5.646;2023-07-02T03:37:26;18.0;69.8
79301;SHT31;68755;51.984;5.646;2023-07-02T03:39:55;18.0;70.1
79301;SHT31;68755;51.984;5.646;2023-07-02T03:42:26;18.0;70.0
79301;SHT31;68755;51.984;5.646;2023-07-02T03:44:55;18.0;69.4
79301;SHT31;68755;51.984;5.646;2023-07-02T03:47:25;18.0;69.7
79301;SHT31;68755;51.984;5.646;2023-07-02T03:49:55;17.9;69.4
79301;SHT31;68755;51.984;5.646;2023-07-02T03:52:25;17.9;69.0
79301;SHT31;68755;51.984;5.646;2023-07-02T03:54:54;17.9;69.4
79301;SHT31;68755;51.984;5.646;2023-07-02T03:57:24;17.9;69.3
79301;SHT31;68755;51.984;5.646;2023-07-02T03:59:54;17.9;69.3
79301;SHT31;68755;51.984;5.646;2023-07-02T04:02:24;17.9;69.1
79301;SHT31;68755;51.984;5.646;2023-07-02T04:04:53;17.9;69.0
79301;SHT31;68755;51.984;5.646;2023-07-02T04:07:23;17.8;68.9
79301;SHT31;68755;51.984;5.646;2023-07-02T04:09:53;17.8;68.4
79301;SHT31;68755;51.984;5.646;2023-07-02T04:12:23;17.8;68.3
79301;SHT31;68755;51.984;5.646;2023-07-02T04:14:52;17.8;68.4
79301;SHT31;68755;51.984;5.646;2023-07-02T04:17:22;17.8;67.9
79301;SHT31;68755;51.984;5.646;2023-07-02T04:19:54;17.7;68.5
79301;SHT31;68755;51.984;5.646;2023-07-02T04:22:24;17.7;68.8
79301;SHT31;68755;51.984;5.646;2023-07-02T04:24:54;17.7;68.5
79301;SHT31;68755;51.984;5.646;2023-07-02T04:27:23;17.7;68.9
79301;SHT31;68755;51.984;5.646;2023-07-02T04:29:54;17.7;68.6
79301;SHT31;68755;51.984;5.646;2023-07-02T04:32:24;17.7;68.8
79301;SHT31;68755;51.984;5.646;2023-07-02T04:34:54;17.7;68.6
79301;SHT31;68755;51.984;5.646;2023-07-02T04:37:23;17.7;68.7
79301;SHT31;68755;51.984;5.646;2023-07-02T04:39:55;17.7;68.3
79301;SHT31;68755;51.984;5.646;2023-07-02T04:42:24;17.6;68.3
79301;SHT31;68755;51.984;5.646;2023-07-02T04:44:55;17.6;68.3
79301;SHT31;68755;51.984;5.646;2023-07-02T04:47:30;17.6;68.5
79301;SHT31;68755;51.984;5.646;2023-07-02T04:50:00;17.6;68.0
79301;SHT31;68755;51.984;5.646;2023-07-02T04:52:30;17.6;67.6
79301;SHT31;68755;51.984;5.646;2023-07-02T04:55:00;17.6;67.7
79301;SHT31;68755;51.984;5.646;2023-07-02T04:57:30;17.6;67.3
79301;SHT31;68755;51.984;5.646;2023-07-02T04:59:59;17.6;67.2
79301;SHT31;68755;51.984;5.646;2023-07-02T05:02:30;17.6;66.9
79301;SHT31;68755;51.984;5.646;2023-07-02T05:05:00;17.6;67.1
79301;SHT31;68755;51.984;5.646;2023-07-02T05:07:30;17.6;67.0
79301;SHT31;68755;51.984;5.646;2023-07-02T05:10:01;17.6;67.1
79301;SHT31;68755;51.984;5.646;2023-07-02T05:12:31;17.6;67.1
79301;SHT31;68755;51.984;5.646;2023-07-02T05:15:01;17.6;67.7
79301;SHT31;68755;51.984;5.646;2023-07-02T05:17:32;17.6;66.9
79301;SHT31;68755;51.984;5.646;2023-07-02T05:20:04;17.6;66.5
79301;SHT31;68755;51.984;5.646;2023-07-02T05:22:36;17.6;66.7
79301;SHT31;68755;51.984;5.646;2023-07-02T05:25:07;17.6;66.9
79301;SHT31;68755;51.984;5.646;2023-07-02T05:27:39;17.6;67.3
79301;SHT31;68755;51.984;5.646;2023-07-02T05:30:09;17.7;66.8
79301;SHT31;68755;51.984;5.646;2023-07-02T05:32:39;17.7;67.2
79301;SHT31;68755;51.984;5.646;2023-07-02T05:35:09;17.7;67.1
79301;SHT31;68755;51.984;5.646;2023-07-02T05:37:39;17.8;67.1
79301;SHT31;68755;51.984;5.646;2023-07-02T05:40:12;17.8;65.4
79301;SHT31;68755;51.984;5.646;2023-07-02T05:42:42;17.8;66.9
79301;SHT31;68755;51.984;5.646;2023-07-02T05:45:12;17.8;66.5
79301;SHT31;68755;51.984;5.646;2023-07-02T05:47:42;17.9;66.6
79301;SHT31;68755;51.984;5.646;2023-07-02T05:50:11;17.9;65.5
79301;SHT31;68755;51.984;5.646;2023-07-02T05:52:41;17.9;65.8
79301;SHT31;68755;51.984;5.646;2023-07-02T05:55:11;17.9;66.5
79301;SHT31;68755;51.984;5.646;2023-07-02T05:57:41;18.0;66.2
79301;SHT31;68755;51.984;5.646;2023-07-02T06:00:13;18.0;66.1
79301;SHT31;68755;51.984;5.646;2023-07-02T06:02:47;18.1;65.0
79301;SHT31;68755;51.984;5.646;2023-07-02T06:05:17;18.2;64.4
79301;SHT31;68755;51.984;5.646;2023-07-02T06:07:47;18.3;64.5
79301;SHT31;68755;51.984;5.646;2023-07-02T06:10:17;18.4;63.8
79301;SHT31;68755;51.984;5.646;2023-07-02T06:12:48;18.4;63.0
79301;SHT31;68755;51.984;5.646;2023-07-02T06:15:19;18.5;63.2
79301;SHT31;68755;51.984;5.646;2023-07-02T06:17:49;18.5;63.3
79301;SHT31;68755;51.984;5.646;2023-07-02T06:20:18;18.5;62.9
79301;SHT31;68755;51.984;5.646;2023-07-02T06:22:48;18.5;62.9
79301;SHT31;68755;51.984;5.646;2023-07-02T06:25:18;18.5;63.2
79301;SHT31;68755;51.984;5.646;2023-07-02T06:27:48;18.5;63.3
79301;SHT31;68755;51.984;5.646;2023-07-02T06:30:19;18.5;62.9
79301;SHT31;68755;51.984;5.646;2023-07-02T06:32:49;18.5;62.3
79301;SHT31;68755;51.984;5.646;2023-07-02T06:35:19;18.5;63.6
79301;SHT31;68755;51.984;5.646;2023-07-02T06:37:49;18.6;62.0
79301;SHT31;68755;51.984;5.646;2023-07-02T06:40:19;18.6;62.7
79301;SHT31;68755;51.984;5.646;2023-07-02T06:42:49;18.6;62.9
79301;SHT31;68755;51.984;5.646;2023-07-02T06:45:19;18.6;63.2
79301;SHT31;68755;51.984;5.646;2023-07-02T06:47:49;18.6;63.8
79301;SHT31;68755;51.984;5.646;2023-07-02T06:50:19;18.6;61.7
79301;SHT31;68755;51.984;5.646;2023-07-02T06:52:50;18.6;62.4
79301;SHT31;68755;51.984;5.646;2023-07-02T06:55:22;18.7;61.6
79301;SHT31;68755;51.984;5.646;2023-07-02T06:57:52;18.7;61.8
79301;SHT31;68755;51.984;5.646;2023-07-02T07:00:22;18.7;61.9
79301;SHT31;68755;51.984;5.646;2023-07-02T07:02:52;18.8;62.4
79301;SHT31;68755;51.984;5.646;2023-07-02T07:05:21;18.8;62.1
79301;SHT31;68755;51.984;5.646;2023-07-02T07:07:51;18.8;62.8
79301;SHT31;68755;51.984;5.646;2023-07-02T07:10:21;18.9;61.4
79301;SHT31;68755;51.984;5.646;2023-07-02T07:12:50;18.9;61.1
79301;SHT31;68755;51.984;5.646;2023-07-02T07:15:21;18.9;60.9
79301;SHT31;68755;51.984;5.646;2023-07-02T07:17:50;18.9;60.7
79301;SHT31;68755;51.984;5.646;2023-07-02T07:20:20;19.0;60.5
79301;SHT31;68755;51.984;5.646;2023-07-02T07:22:50;19.0;61.6
79301;SHT31;68755;51.984;5.646;2023-07-02T07:25:20;19.0;61.3
79301;SHT31;68755;51.984;5.646;2023-07-02T07:27:51;19.0;61.1
79301;SHT31;68755;51.984;5.646;2023-07-02T07:30:21;19.0;61.0
79301;SHT31;68755;51.984;5.646;2023-07-02T07:32:52;19.1;61.2
79301;SHT31;68755;51.984;5.646;2023-07-02T07:35:22;19.1;61.5
79301;SHT31;68755;51.984;5.646;2023-07-02T07:37:52;19.1;61.0
79301;SHT31;68755;51.984;5.646;2023-07-02T07:40:22;19.1;60.8
79301;SHT31;68755;51.984;5.646;2023-07-02T07:42:51;19.1;61.1
79301;SHT31;68755;51.984;5.646;2023-07-02T07:45:21;19.1;60.6
79301;SHT31;68755;51.984;5.646;2023-07-02T07:47:51;19.1;61.0
79301;SHT31;68755;51.984;5.646;2023-07-02T07:50:21;19.2;61.6
79301;SHT31;68755;51.984;5.646;2023-07-02T07:52:51;19.2;61.5
79301;SHT31;68755;51.984;5.646;2023-07-02T07:55:21;19.2;61.7
79301;SHT31;68755;51.984;5.646;2023-07-02T07:57:50;19.2;59.9
79301;SHT31;68755;51.984;5.646;2023-07-02T08:00:20;19.2;59.8
79301;SHT31;68755;51.984;5.646;2023-07-02T08:02:51;19.2;57.8
79301;SHT31;68755;51.984;5.646;2023-07-02T08:05:23;19.2;57.6
79301;SHT31;68755;51.984;5.646;2023-07-02T08:07:53;19.3;58.2
79301;SHT31;68755;51.984;5.646;2023-07-02T08:10:23;19.3;57.8
79301;SHT31;68755;51.984;5.646;2023-07-02T08:12:53;19.4;56.7
79301;SHT31;68755;51.984;5.646;2023-07-02T08:15:23;19.4;58.4
79301;SHT31;68755;51.984;5.646;2023-07-02T08:17:53;19.5;54.3
79301;SHT31;68755;51.984;5.646;2023-07-02T08:20:26;19.5;55.6
79301;SHT31;68755;51.984;5.646;2023-07-02T08:22:55;19.5;56.1
79301;SHT31;68755;51.984;5.646;2023-07-02T08:25:25;19.6;53.3
79301;SHT31;68755;51.984;5.646;2023-07-02T08:27:56;19.6;54.5
79301;SHT31;68755;51.984;5.646;2023-07-02T08:30:26;19.6;54.1
79301;SHT31;68755;51.984;5.646;2023-07-02T08:32:56;19.6;53.8
79301;SHT31;68755;51.984;5.646;2023-07-02T08:35:28;19.7;54.1
79301;SHT31;68755;51.984;5.646;2023-07-02T08:37:57;19.7;55.3
79301;SHT31;68755;51.984;5.646;2023-07-02T08:40:27;19.7;55.5
79301;SHT31;68755;51.984;5.646;2023-07-02T08:42:58;19.8;55.5
79301;SHT31;68755;51.984;5.646;2023-07-02T08:45:29;19.8;55.3
79301;SHT31;68755;51.984;5.646;2023-07-02T08:48:01;19.9;54.6
79301;SHT31;68755;51.984;5.646;2023-07-02T08:50:33;20.0;54.5
79301;SHT31;68755;51.984;5.646;2023-07-02T08:53:03;20.1;53.4
79301;SHT31;68755;51.984;5.646;2023-07-02T08:55:33;20.1;51.9
79301;SHT31;68755;51.984;5.646;2023-07-02T08:58:02;20.2;50.8
79301;SHT31;68755;51.984;5.646;2023-07-02T09:00:32;20.2;51.1
79301;SHT31;68755;51.984;5.646;2023-07-02T09:03:13;20.2;51.2
79301;SHT31;68755;51.984;5.646;2023-07-02T09:05:52;20.2;50.5
79301;SHT31;68755;51.984;5.646;2023-07-02T09:08:26;20.3;50.3
79301;SHT31;68755;51.984;5.646;2023-07-02T09:11:09;20.3;48.9
79301;SHT31;68755;51.984;5.646;2023-07-02T09:13:49;20.3;49.7
79301;SHT31;68755;51.984;5.646;2023-07-02T09:16:24;20.4;50.5
79301;SHT31;68755;51.984;5.646;2023-07-02T09:19:02;20.4;50.6
79301;SHT31;68755;51.984;5.646;2023-07-02T09:21:44;20.5;50.7
79301;SHT31;68755;51.984;5.646;2023-07-02T09:24:19;20.5;50.5
79301;SHT31;68755;51.984;5.646;2023-07-02T09:26:52;20.6;49.2
79301;SHT31;68755;51.984;5.646;2023-07-02T09:29:24;20.7;49.0
79301;SHT31;68755;51.984;5.646;2023-07-02T09:31:57;20.7;47.2
79301;SHT31;68755;51.984;5.646;2023-07-02T09:34:29;20.8;48.0
79301;SHT31;68755;51.984;5.646;2023-07-02T09:37:00;20.9;46.7
79301;SHT31;68755;51.984;5.646;2023-07-02T09:39:32;21.0;46.9
79301;SHT31;68755;51.984;5.646;2023-07-02T09:42:06;21.1;47.5
79301;SHT31;68755;51.984;5.646;2023-07-02T09:44:38;21.2;47.1
79301;SHT31;68755;51.984;5.646;2023-07-02T09:47:12;21.3;46.7
79301;SHT31;68755;51.984;5.646;2023-07-02T09:49:47;21.4;46.5
79301;SHT31;68755;51.984;5.646;2023-07-02T09:52:19;21.5;45.9
79301;SHT31;68755;51.984;5.646;2023-07-02T09:54:49;21.6;44.1
79301;SHT31;68755;51.984;5.646;2023-07-02T09:57:19;21.7;45.3
79301;SHT31;68755;51.984;5.646;2023-07-02T09:59:49;21.8;44.3
79301;SHT31;68755;51.984;5.646;2023-07-02T10:02:19;21.8;45.1
79301;SHT31;68755;51.984;5.646;2023-07-02T10:04:49;21.9;44.2
79301;SHT31;68755;51.984;5.646;2023-07-02T10:07:29;22.0;42.5
79301;SHT31;68755;51.984;5.646;2023-07-02T10:10:00;22.0;41.4
79301;SHT31;68755;51.984;5.646;2023-07-02T10:12:30;22.1;42.7
79301;SHT31;68755;51.984;5.646;2023-07-02T10:15:03;22.1;43.6
79301;SHT31;68755;51.984;5.646;2023-07-02T10:17:34;22.1;42.3
79301;SHT31;68755;51.984;5.646;2023-07-02T10:20:06;22.1;43.5
79301;SHT31;68755;51.984;5.646;2023-07-02T10:22:46;22.2;43.8
79301;SHT31;68755;51.984;5.646;2023-07-02T10:25:26;22.2;43.2
79301;SHT31;68755;51.984;5.646;2023-07-02T10:27:59;22.2;44.7
79301;SHT31;68755;51.984;5.646;2023-07-02T10:30:34;22.3;43.3
79301;SHT31;68755;51.984;5.646;2023-07-02T10:33:11;22.3;43.1
79301;SHT31;68755;51.984;5.646;2023-07-02T10:35:43;22.4;42.9
79301;SHT31;68755;51.984;5.646;2023-07-02T10:38:19;22.4;43.5
79301;SHT31;68755;51.984;5.646;2023-07-02T10:40:56;22.5;42.1
79301;SHT31;68755;51.984;5.646;2023-07-02T10:43:27;22.5;42.2
79301;SHT31;68755;51.984;5.646;2023-07-02T10:45:58;22.6;41.6
79301;SHT31;68755;51.984;5.646;2023-07-02T10:48:30;22.6;41.9
79301;SHT31;68755;51.984;5.646;2023-07-02T10:51:12;22.6;41.8
79301;SHT31;68755;51.984;5.646;2023-07-02T10:53:42;22.7;42.2
79301;SHT31;68755;51.984;5.646;2023-07-02T10:56:17;22.7;41.5
79301;SHT31;68755;51.984;5.646;2023-07-02T10:58:49;22.8;41.0
79301;SHT31;68755;51.984;5.646;2023-07-02T11:01:25;22.8;41.5
79301;SHT31;68755;51.984;5.646;2023-07-02T11:04:00;22.8;40.8
79301;SHT31;68755;51.984;5.646;2023-07-02T11:06:32;22.9;39.0
79301;SHT31;68755;51.984;5.646;2023-07-02T11:09:02;22.9;39.1
79301;SHT31;68755;51.984;5.646;2023-07-02T11:11:32;22.9;38.7
79301;SHT31;68755;51.984;5.646;2023-07-02T11:14:02;23.0;38.7
79301;SHT31;68755;51.984;5.646;2023-07-02T11:16:34;23.0;38.2
79301;SHT31;68755;51.984;5.646;2023-07-02T11:19:13;23.0;39.3
79301;SHT31;68755;51.984;5.646;2023-07-02T11:21:53;23.0;40.8
79301;SHT31;68755;51.984;5.646;2023-07-02T11:24:32;23.0;40.8
79301;SHT31;68755;51.984;5.646;2023-07-02T11:27:03;23.1;40.3
79301;SHT31;68755;51.984;5.646;2023-07-02T11:29:35;23.1;40.5
79301;SHT31;68755;51.984;5.646;2023-07-02T11:32:10;23.2;40.6
79301;SHT31;68755;51.984;5.646;2023-07-02T11:34:41;23.3;41.1
79301;SHT31;68755;51.984;5.646;2023-07-02T11:37:11;23.4;37.9
79301;SHT31;68755;51.984;5.646;2023-07-02T11:39:45;23.4;37.4
79301;SHT31;68755;51.984;5.646;2023-07-02T11:42:16;23.5;38.7
79301;SHT31;68755;51.984;5.646;2023-07-02T11:44:46;23.5;38.7
79301;SHT31;68755;51.984;5.646;2023-07-02T11:47:15;23.6;37.6
79301;SHT31;68755;51.984;5.646;2023-07-02T11:49:45;23.6;38.3
79301;SHT31;68755;51.984;5.646;2023-07-02T11:52:15;23.7;38.3
79301;SHT31;68755;51.984;5.646;2023-07-02T11:54:45;23.7;37.8
79301;SHT31;68755;51.984;5.646;2023-07-02T11:57:15;23.8;38.3
79301;SHT31;68755;51.984;5.646;2023-07-02T11:59:47;23.8;37.7
79301;SHT31;68755;51.984;5.646;2023-07-02T12:02:17;23.9;37.1
79301;SHT31;68755;51.984;5.646;2023-07-02T12:04:47;23.9;37.2
79301;SHT31;68755;51.984;5.646;2023-07-02T12:07:17;23.9;37.0
79301;SHT31;68755;51.984;5.646;2023-07-02T12:09:47;23.9;36.8
79301;SHT31;68755;51.984;5.646;2023-07-02T12:12:16;23.9;37.8
79301;SHT31;68755;51.984;5.646;2023-07-02T12:14:46;23.9;37.2
79301;SHT31;68755;51.984;5.646;2023-07-02T12:17:18;24.0;35.8
79301;SHT31;68755;51.984;5.646;2023-07-02T12:19:48;24.0;35.3
79301;SHT31;68755;51.984;5.646;2023-07-02T12:22:18;24.0;35.7
79301;SHT31;68755;51.984;5.646;2023-07-02T12:24:50;24.0;37.8
79301;SHT31;68755;51.984;5.646;2023-07-02T12:27:22;24.0;36.1
79301;SHT31;68755;51.984;5.646;2023-07-02T12:29:56;24.0;36.3
79301;SHT31;68755;51.984;5.646;2023-07-02T12:32:26;24.0;35.8
79301;SHT31;68755;51.984;5.646;2023-07-02T12:34:55;24.0;36.6
79301;SHT31;68755;51.984;5.646;2023-07-02T12:37:25;24.0;36.7
79301;SHT31;68755;51.984;5.646;2023-07-02T12:39:57;24.0;37.0
79301;SHT31;68755;51.984;5.646;2023-07-02T12:42:27;24.0;36.9
79301;SHT31;68755;51.984;5.646;2023-07-02T12:44:57;24.1;36.7
79301;SHT31;68755;51.984;5.646;2023-07-02T12:47:27;24.1;35.6
79301;SHT31;68755;51.984;5.646;2023-07-02T12:49:57;24.1;36.8
79301;SHT31;68755;51.984;5.646;2023-07-02T12:52:27;24.2;35.5
79301;SHT31;68755;51.984;5.646;2023-07-02T12:54:57;24.2;36.0
79301;SHT31;68755;51.984;5.646;2023-07-02T12:57:27;24.2;36.3
79301;SHT31;68755;51.984;5.646;2023-07-02T12:59:56;24.2;38.0
79301;SHT31;68755;51.984;5.646;2023-07-02T13:02:26;24.2;37.6
79301;SHT31;68755;51.984;5.646;2023-07-02T13:04:56;24.2;36.5
79301;SHT31;68755;51.984;5.646;2023-07-02T13:07:26;24.2;36.2
79301;SHT31;68755;51.984;5.646;2023-07-02T13:09:58;24.2;38.0
79301;SHT31;68755;51.984;5.646;2023-07-02T13:12:27;24.2;38.5
79301;SHT31;68755;51.984;5.646;2023-07-02T13:14:57;24.2;37.5
79301;SHT31;68755;51.984;5.646;2023-07-02T13:17:27;24.2;37.4
79301;SHT31;68755;51.984;5.646;2023-07-02T13:19:59;24.3;37.1
79301;SHT31;68755;51.984;5.646;2023-07-02T13:22:28;24.3;38.5
79301;SHT31;68755;51.984;5.646;2023-07-02T13:24:58;24.3;37.9
79301;SHT31;68755;51.984;5.646;2023-07-02T13:27:28;24.3;37.9
79301;SHT31;68755;51.984;5.646;2023-07-02T13:29:58;24.3;37.6
79301;SHT31;68755;51.984;5.646;2023-07-02T13:32:28;24.3;37.5
79301;SHT31;68755;51.984;5.646;2023-07-02T13:35:00;24.3;39.0
79301;SHT31;68755;51.984;5.646;2023-07-02T13:37:30;24.3;37.3
79301;SHT31;68755;51.984;5.646;2023-07-02T13:40:00;24.3;37.6
79301;SHT31;68755;51.984;5.646;2023-07-02T13:42:33;24.3;38.5
79301;SHT31;68755;51.984;5.646;2023-07-02T13:45:03;24.3;39.5
79301;SHT31;68755;51.984;5.646;2023-07-02T13:47:33;24.3;37.3
79301;SHT31;68755;51.984;5.646;2023-07-02T13:50:03;24.3;39.2
79301;SHT31;68755;51.984;5.646;2023-07-02T13:52:33;24.3;37.7
79301;SHT31;68755;51.984;5.646;2023-07-02T13:55:03;24.2;37.2
79301;SHT31;68755;51.984;5.646;2023-07-02T13:57:33;24.2;38.5
79301;SHT31;68755;51.984;5.646;2023-07-02T14:00:03;24.2;37.5
79301;SHT31;68755;51.984;5.646;2023-07-02T14:02:33;24.1;37.7
79301;SHT31;68755;51.984;5.646;2023-07-02T14:05:03;24.1;37.9
79301;SHT31;68755;51.984;5.646;2023-07-02T14:07:33;24.0;38.0
79301;SHT31;68755;51.984;5.646;2023-07-02T14:10:03;24.0;38.0
79301;SHT31;68755;51.984;5.646;2023-07-02T14:12:35;23.9;38.6
79301;SHT31;68755;51.984;5.646;2023-07-02T14:15:06;23.9;38.8
79301;SHT31;68755;51.984;5.646;2023-07-02T14:17:36;23.9;39.0
79301;SHT31;68755;51.984;5.646;2023-07-02T14:20:07;23.9;40.1
79301;SHT31;68755;51.984;5.646;2023-07-02T14:22:37;23.9;39.0
79301;SHT31;68755;51.984;5.646;2023-07-02T14:25:08;23.9;39.6
79301;SHT31;68755;51.984;5.646;2023-07-02T14:27:38;23.9;38.5
79301;SHT31;68755;51.984;5.646;2023-07-02T14:30:08;23.9;37.9
79301;SHT31;68755;51.984;5.646;2023-07-02T14:32:38;23.9;38.4
79301;SHT31;68755;51.984;5.646;2023-07-02T14:35:09;23.9;38.8
79301;SHT31;68755;51.984;5.646;2023-07-02T14:37:39;23.9;38.9
79301;SHT31;68755;51.984;5.646;2023-07-02T14:40:09;23.9;36.6
79301;SHT31;68755;51.984;5.646;2023-07-02T14:42:40;23.9;36.6
79301;SHT31;68755;51.984;5.646;2023-07-02T14:45:10;23.9;35.8
79301;SHT31;68755;51.984;5.646;2023-07-02T14:47:40;23.9;34.2
79301;SHT31;68755;51.984;5.646;2023-07-02T14:50:10;23.9;35.3
79301;SHT31;68755;51.984;5.646;2023-07-02T14:52:40;23.9;36.0
79301;SHT31;68755;51.984;5.646;2023-07-02T14:55:10;23.9;36.9
79301;SHT31;68755;51.984;5.646;2023-07-02T14:57:40;23.9;37.0
79301;SHT31;68755;51.984;5.646;2023-07-02T15:00:10;23.9;36.5
79301;SHT31;68755;51.984;5.646;2023-07-02T15:02:41;23.9;35.2
79301;SHT31;68755;51.984;5.646;2023-07-02T15:05:11;23.9;35.5
79301;SHT31;68755;51.984;5.646;2023-07-02T15:07:40;23.9;35.9
79301;SHT31;68755;51.984;5.646;2023-07-02T15:10:10;23.8;35.9
79301;SHT31;68755;51.984;5.646;2023-07-02T15:12:40;23.8;35.4
79301;SHT31;68755;51.984;5.646;2023-07-02T15:15:12;23.8;34.9
79301;SHT31;68755;51.984;5.646;2023-07-02T15:17:43;23.8;35.2
79301;SHT31;68755;51.984;5.646;2023-07-02T15:20:13;23.8;35.7
79301;SHT31;68755;51.984;5.646;2023-07-02T15:22:43;23.7;35.0
79301;SHT31;68755;51.984;5.646;2023-07-02T15:25:13;23.7;36.0
79301;SHT31;68755;51.984;5.646;2023-07-02T15:27:43;23.6;35.6
79301;SHT31;68755;51.984;5.646;2023-07-02T15:30:13;23.6;36.0
79301;SHT31;68755;51.984;5.646;2023-07-02T15:32:45;23.6;36.4
79301;SHT31;68755;51.984;5.646;2023-07-02T15:35:14;23.6;36.2
79301;SHT31;68755;51.984;5.646;2023-07-02T15:37:44;23.5;36.1
79301;SHT31;68755;51.984;5.646;2023-07-02T15:40:14;23.5;36.1
79301;SHT31;68755;51.984;5.646;2023-07-02T15:42:44;23.5;36.3
79301;SHT31;68755;51.984;5.646;2023-07-02T15:45:14;23.5;36.8
79301;SHT31;68755;51.984;5.646;2023-07-02T15:47:43;23.5;37.7
79301;SHT31;68755;51.984;5.646;2023-07-02T15:50:13;23.5;37.7
79301;SHT31;68755;51.984;5.646;2023-07-02T15:52:43;23.5;36.8
79301;SHT31;68755;51.984;5.646;2023-07-02T15:55:13;23.5;37.1
79301;SHT31;68755;51.984;5.646;2023-07-02T15:57:43;23.5;37.8
79301;SHT31;68755;51.984;5.646;2023-07-02T16:00:14;23.5;38.2
79301;SHT31;68755;51.984;5.646;2023-07-02T16:02:46;23.5;37.3
79301;SHT31;68755;51.984;5.646;2023-07-02T16:05:18;23.4;37.4
79301;SHT31;68755;51.984;5.646;2023-07-02T16:07:48;23.5;37.3
79301;SHT31;68755;51.984;5.646;2023-07-02T16:10:20;23.5;38.1
79301;SHT31;68755;51.984;5.646;2023-07-02T16:12:51;23.5;37.8
79301;SHT31;68755;51.984;5.646;2023-07-02T16:15:20;23.5;37.5
79301;SHT31;68755;51.984;5.646;2023-07-02T16:17:50;23.5;38.0
79301;SHT31;68755;51.984;5.646;2023-07-02T16:20:21;23.5;37.8
79301;SHT31;68755;51.984;5.646;2023-07-02T16:22:51;23.5;37.9
79301;SHT31;68755;51.984;5.646;2023-07-02T16:25:21;23.5;38.3